createdAt,value
2018-07-11T00:02:23.171Z,14.92
2018-07-11T00:05:11.778Z,14.75
2018-07-11T00:08:01.016Z,14.75
2018-07-11T00:10:49.591Z,14.89
2018-07-11T00:13:38.228Z,14.82
2018-07-11T00:16:27.185Z,14.76
2018-07-11T00:19:15.896Z,14.82
2018-07-11T00:22:04.605Z,14.79
2018-07-11T00:24:53.602Z,14.73
2018-07-11T00:27:41.528Z,14.81
2018-07-11T00:30:31.157Z,14.71
2018-07-11T00:33:19.847Z,14.79
2018-07-11T00:36:08.696Z,14.73
2018-07-11T00:38:57.521Z,14.72
2018-07-11T00:41:46.335Z,14.65
2018-07-11T00:44:35.143Z,14.50
2018-07-11T00:47:24.048Z,14.51
2018-07-11T00:50:12.895Z,14.51
2018-07-11T00:53:02.020Z,14.48
2018-07-11T00:55:50.793Z,14.28
2018-07-11T00:58:40.302Z,14.43
2018-07-11T01:01:28.514Z,14.36
2018-07-11T01:04:17.561Z,14.31
2018-07-11T01:07:07.712Z,14.47
2018-07-11T01:09:57.023Z,14.41
2018-07-11T01:12:45.321Z,14.36
2018-07-11T01:15:34.121Z,14.22
2018-07-11T01:18:23.291Z,14.29
2018-07-11T01:21:12.529Z,14.30
2018-07-11T01:24:00.724Z,14.10
2018-07-11T01:26:50.024Z,14.08
2018-07-11T01:29:38.425Z,14.28
2018-07-11T01:32:27.535Z,14.33
2018-07-11T01:35:16.299Z,14.15
2018-07-11T01:38:04.736Z,14.21
2018-07-11T01:40:53.473Z,14.20
2018-07-11T01:43:42.672Z,14.23
2018-07-11T01:46:31.344Z,14.11
2018-07-11T01:49:20.602Z,14.14
2018-07-11T01:52:09.097Z,14.12
2018-07-11T01:54:58.097Z,14.25
2018-07-11T01:57:47.397Z,14.19
2018-07-11T02:00:36.364Z,14.25
2018-07-11T02:03:25.205Z,14.20
2018-07-11T02:06:14.129Z,14.21
2018-07-11T02:09:03.200Z,14.28
2018-07-11T02:11:51.693Z,14.28
2018-07-11T02:14:40.701Z,14.31
2018-07-11T02:17:28.857Z,14.28
2018-07-11T02:20:18.113Z,14.35
2018-07-11T02:23:06.734Z,14.10
2018-07-11T02:25:57.423Z,13.94
2018-07-11T02:28:50.693Z,13.89
2018-07-11T02:31:38.972Z,13.77
2018-07-11T02:34:32.781Z,13.84
2018-07-11T02:37:21.761Z,13.82
2018-07-11T02:40:10.521Z,13.99
2018-07-11T02:42:59.500Z,14.02
2018-07-11T02:45:49.243Z,13.96
2018-07-11T02:48:37.609Z,14.06
2018-07-11T02:51:26.709Z,13.97
2018-07-11T02:54:15.764Z,13.84
2018-07-11T02:57:05.817Z,14.08
2018-07-11T02:59:55.237Z,14.09
2018-07-11T03:02:43.571Z,14.10
2018-07-11T03:05:32.566Z,14.02
2018-07-11T03:08:21.428Z,14.09
2018-07-11T03:11:10.257Z,14.28
2018-07-11T03:13:59.215Z,14.16
2018-07-11T03:16:48.070Z,14.04
2018-07-11T03:19:37.281Z,13.99
2018-07-11T03:22:26.398Z,14.12
2018-07-11T03:25:14.948Z,14.13
2018-07-11T03:28:04.098Z,14.05
2018-07-11T03:30:52.795Z,14.09
2018-07-11T03:33:41.329Z,14.25
2018-07-11T03:36:30.109Z,14.33
2018-07-11T03:39:19.012Z,14.30
2018-07-11T03:42:07.792Z,14.00
2018-07-11T03:44:56.627Z,14.16
2018-07-11T03:47:45.813Z,14.03
2018-07-11T03:50:34.512Z,14.06
2018-07-11T03:53:23.223Z,14.02
2018-07-11T03:56:12.004Z,13.94
2018-07-11T03:59:01.078Z,13.97
2018-07-11T04:01:50.080Z,13.98
2018-07-11T04:04:38.902Z,14.07
2018-07-11T04:07:27.794Z,13.82
2018-07-11T04:10:16.655Z,14.01
2018-07-11T04:13:05.280Z,13.96
2018-07-11T04:15:54.349Z,13.97
2018-07-11T04:18:43.043Z,14.02
2018-07-11T04:21:32.520Z,13.89
2018-07-11T04:24:21.592Z,13.96
2018-07-11T04:27:10.312Z,13.94
2018-07-11T04:29:59.017Z,13.99
2018-07-11T04:32:48.028Z,14.02
2018-07-11T04:35:36.404Z,13.76
2018-07-11T04:38:25.519Z,13.76
2018-07-11T04:41:14.100Z,13.94
2018-07-11T04:44:03.092Z,13.78
2018-07-11T04:46:52.044Z,13.94
2018-07-11T04:49:40.733Z,13.93
2018-07-11T04:52:29.488Z,13.77
2018-07-11T04:55:18.993Z,13.94
2018-07-11T04:58:07.136Z,13.80
2018-07-11T05:00:56.501Z,13.81
2018-07-11T05:03:44.876Z,13.72
2018-07-11T05:06:33.734Z,13.81
2018-07-11T05:09:22.540Z,13.81
2018-07-11T05:12:11.393Z,13.93
2018-07-11T05:15:00.696Z,13.89
2018-07-11T05:17:49.916Z,13.83
2018-07-11T05:20:38.821Z,13.63
2018-07-11T05:23:27.627Z,13.79
2018-07-11T05:26:16.680Z,13.90
2018-07-11T05:29:05.563Z,13.94
2018-07-11T05:31:54.221Z,13.92
2018-07-11T05:34:43.005Z,13.96
2018-07-11T05:37:32.542Z,13.93
2018-07-11T05:40:20.994Z,14.04
2018-07-11T05:43:10.158Z,14.11
2018-07-11T05:45:59.205Z,14.11
2018-07-11T05:48:48.416Z,14.10
2018-07-11T05:51:37.341Z,14.18
2018-07-11T05:54:26.652Z,13.97
2018-07-11T05:57:17.232Z,14.05
2018-07-11T06:00:07.243Z,13.94
2018-07-11T06:02:56.018Z,14.04
2018-07-11T06:05:45.272Z,14.10
2018-07-11T06:08:34.088Z,14.16
2018-07-11T06:11:24.489Z,14.19
2018-07-11T06:14:13.025Z,14.12
2018-07-11T06:17:02.443Z,13.98
2018-07-11T06:19:50.455Z,14.17
2018-07-11T06:22:39.413Z,14.21
2018-07-11T06:25:28.586Z,14.16
2018-07-11T06:28:18.097Z,14.26
2018-07-11T06:31:06.464Z,14.28
2018-07-11T06:33:54.853Z,14.30
2018-07-11T06:36:44.255Z,14.44
2018-07-11T06:39:33.416Z,14.39
2018-07-11T06:42:22.052Z,14.33
2018-07-11T06:45:11.075Z,14.42
2018-07-11T06:48:01.306Z,14.38
2018-07-11T06:50:50.099Z,14.43
2018-07-11T06:53:38.590Z,14.49
2018-07-11T06:56:27.639Z,14.52
2018-07-11T06:59:16.622Z,14.49
2018-07-11T07:02:05.933Z,14.58
2018-07-11T07:04:54.209Z,14.68
2018-07-11T07:07:43.059Z,14.60
2018-07-11T07:10:31.794Z,14.64
2018-07-11T07:13:20.264Z,14.49
2018-07-11T07:16:09.172Z,14.46
2018-07-11T07:18:58.186Z,14.49
2018-07-11T07:21:46.860Z,14.44
2018-07-11T07:24:35.695Z,14.57
2018-07-11T07:27:24.732Z,14.73
2018-07-11T07:30:13.535Z,14.84
2018-07-11T07:33:02.596Z,14.84
2018-07-11T07:35:51.083Z,14.67
2018-07-11T07:38:41.863Z,14.78
2018-07-11T07:41:30.976Z,14.73
2018-07-11T07:44:19.852Z,14.88
2018-07-11T07:47:12.598Z,14.62
2018-07-11T07:50:01.207Z,14.81
2018-07-11T07:52:50.736Z,14.72
2018-07-11T07:55:38.404Z,14.59
2018-07-11T07:58:30.820Z,14.73
2018-07-11T08:01:19.431Z,14.94
2018-07-11T08:04:09.045Z,15.12
2018-07-11T08:06:57.816Z,14.87
2018-07-11T08:09:46.800Z,14.96
2018-07-11T08:12:36.096Z,14.96
2018-07-11T08:15:25.635Z,15.26
2018-07-11T08:18:14.573Z,15.54
2018-07-11T08:21:06.668Z,15.49
2018-07-11T08:23:54.554Z,15.44
2018-07-11T08:26:43.163Z,15.37
2018-07-11T08:29:32.519Z,15.35
2018-07-11T08:32:20.876Z,15.50
2018-07-11T08:35:09.836Z,15.62
2018-07-11T08:37:59.674Z,15.29
2018-07-11T08:40:48.608Z,15.58
2018-07-11T08:43:37.768Z,15.73
2018-07-11T08:46:26.415Z,15.72
2018-07-11T08:49:15.493Z,15.75
2018-07-11T08:52:04.686Z,15.62
2018-07-11T08:54:53.960Z,15.44
2018-07-11T08:57:42.579Z,15.57
2018-07-11T09:00:31.244Z,15.66
2018-07-11T09:03:19.684Z,15.52
2018-07-11T09:06:08.576Z,15.43
2018-07-11T09:08:57.807Z,15.35
2018-07-11T09:11:47.108Z,15.33
2018-07-11T09:14:35.802Z,15.27
2018-07-11T09:17:24.929Z,15.01
2018-07-11T09:20:12.947Z,14.73
2018-07-11T09:23:01.853Z,14.84
2018-07-11T09:25:50.096Z,15.00
2018-07-11T09:28:38.913Z,15.08
2018-07-11T09:31:27.524Z,14.92
2018-07-11T09:34:15.878Z,14.71
2018-07-11T09:37:04.841Z,14.80
2018-07-11T09:39:53.962Z,14.80
2018-07-11T09:42:42.659Z,14.70
2018-07-11T09:45:31.731Z,14.91
2018-07-11T09:48:21.135Z,14.99
2018-07-11T09:51:09.948Z,15.10
2018-07-11T09:53:58.427Z,15.20
2018-07-11T09:56:47.675Z,15.26
2018-07-11T09:59:36.451Z,15.21
2018-07-11T10:02:25.675Z,15.13
2018-07-11T10:05:16.153Z,15.29
2018-07-11T10:08:04.594Z,15.28
2018-07-11T10:10:55.086Z,15.53
2018-07-11T10:13:43.675Z,15.71
2018-07-11T10:16:33.057Z,15.75
2018-07-11T10:19:25.759Z,15.74
2018-07-11T10:22:14.949Z,16.06
2018-07-11T10:25:07.084Z,16.30
2018-07-11T10:27:56.097Z,16.46
2018-07-11T10:30:45.159Z,16.67
2018-07-11T10:33:33.961Z,16.32
2018-07-11T10:36:23.109Z,16.72
2018-07-11T10:39:11.381Z,16.53
2018-07-11T10:42:00.463Z,16.56
2018-07-11T10:44:49.747Z,16.37
2018-07-11T10:47:38.467Z,16.04
2018-07-11T10:50:27.611Z,16.27
2018-07-11T10:53:16.168Z,16.58
2018-07-11T10:56:05.129Z,16.70
2018-07-11T10:58:56.539Z,16.27
2018-07-11T11:01:51.765Z,16.48
2018-07-11T11:04:43.234Z,16.36
2018-07-11T11:07:32.161Z,16.66
2018-07-11T11:10:21.122Z,16.58
2018-07-11T11:13:09.528Z,16.21
2018-07-11T11:15:58.678Z,16.14
2018-07-11T11:18:47.321Z,16.35
2018-07-11T11:21:35.655Z,16.21
2018-07-11T11:24:24.907Z,16.29
2018-07-11T11:27:13.583Z,15.95
2018-07-11T11:30:02.905Z,15.65
2018-07-11T11:32:53.532Z,15.79
2018-07-11T11:35:42.143Z,15.96
2018-07-11T11:38:30.471Z,16.08
2018-07-11T11:41:19.914Z,16.13
2018-07-11T11:44:08.232Z,16.05
2018-07-11T11:47:05.006Z,16.20
2018-07-11T11:49:55.810Z,16.30
2018-07-11T11:52:44.047Z,16.06
2018-07-11T11:55:33.005Z,16.12
2018-07-11T11:58:22.426Z,16.33
2018-07-11T12:01:10.890Z,16.47
2018-07-11T12:03:59.893Z,16.56
2018-07-11T12:06:48.796Z,16.54
2018-07-11T12:09:37.948Z,16.59
2018-07-11T12:12:26.766Z,16.67
2018-07-11T12:15:15.493Z,16.51
2018-07-11T12:18:04.407Z,16.58
2018-07-11T12:20:53.344Z,17.16
2018-07-11T12:23:42.443Z,17.26
2018-07-11T12:26:31.596Z,17.11
2018-07-11T12:29:20.737Z,17.71
2018-07-11T12:32:09.576Z,17.93
2018-07-11T12:34:58.300Z,17.64
2018-07-11T12:37:47.517Z,17.54
2018-07-11T12:40:36.507Z,17.72
2018-07-11T12:43:26.375Z,17.29
2018-07-11T12:46:15.521Z,17.11
2018-07-11T12:49:05.404Z,17.31
2018-07-11T12:51:54.297Z,17.20
2018-07-11T12:54:43.589Z,17.27
2018-07-11T12:57:32.625Z,17.67
2018-07-11T13:00:25.039Z,18.17
2018-07-11T13:03:14.705Z,18.70
2018-07-11T13:06:04.699Z,18.69
2018-07-11T13:08:53.931Z,18.53
2018-07-11T13:11:42.234Z,18.08
2018-07-11T13:14:30.989Z,17.30
2018-07-11T13:17:21.467Z,17.14
2018-07-11T13:20:18.636Z,17.46
2018-07-11T13:23:09.704Z,17.03
2018-07-11T13:25:58.420Z,17.12
2018-07-11T13:28:47.789Z,17.59
2018-07-11T13:31:36.281Z,17.98
2018-07-11T13:34:25.179Z,18.91
2018-07-11T13:37:14.563Z,18.72
2018-07-11T13:40:04.170Z,18.28
2018-07-11T13:42:53.004Z,17.84
2018-07-11T13:45:41.822Z,17.99
2018-07-11T13:48:30.435Z,17.56
2018-07-11T13:51:19.562Z,17.32
2018-07-11T13:54:11.122Z,17.14
2018-07-11T13:57:01.177Z,17.63
2018-07-11T13:59:50.329Z,17.88
2018-07-11T14:02:38.974Z,17.14
2018-07-11T14:05:27.952Z,17.19
2018-07-11T14:08:16.612Z,16.66
2018-07-11T14:11:06.860Z,16.78
2018-07-11T14:13:55.057Z,16.74
2018-07-11T14:16:43.978Z,16.90
2018-07-11T14:19:32.728Z,16.59
2018-07-11T14:22:21.821Z,16.73
2018-07-11T14:25:10.742Z,16.79
2018-07-11T14:27:59.592Z,16.61
2018-07-11T14:30:48.286Z,16.55
2018-07-11T14:33:37.536Z,16.54
2018-07-11T14:36:26.612Z,16.66
2018-07-11T14:39:15.590Z,16.51
2018-07-11T14:42:04.720Z,16.54
2018-07-11T14:44:53.756Z,16.62
2018-07-11T14:47:47.799Z,17.45
2018-07-11T14:50:36.919Z,16.98
2018-07-11T14:53:25.329Z,16.97
2018-07-11T14:56:13.644Z,16.78
2018-07-11T14:59:01.994Z,16.74
2018-07-11T15:01:52.086Z,16.37
2018-07-11T15:04:40.631Z,16.08
2018-07-11T15:07:29.964Z,16.19
2018-07-11T15:10:18.705Z,15.99
2018-07-11T15:13:07.543Z,15.72
2018-07-11T15:15:57.013Z,15.58
2018-07-11T15:18:45.194Z,15.45
2018-07-11T15:21:33.900Z,15.48
2018-07-11T15:24:22.568Z,15.35
2018-07-11T15:27:11.390Z,15.29
2018-07-11T15:29:59.843Z,15.34
2018-07-11T15:32:48.805Z,15.59
2018-07-11T15:35:37.071Z,15.63
2018-07-11T15:38:25.465Z,15.43
2018-07-11T15:41:14.149Z,15.49
2018-07-11T15:44:02.611Z,15.18
2018-07-11T15:46:52.363Z,14.86
2018-07-11T15:49:40.720Z,14.88
2018-07-11T15:52:29.541Z,15.00
2018-07-11T15:55:18.800Z,14.92
2018-07-11T15:58:07.648Z,14.93
2018-07-11T16:00:56.494Z,15.01
2018-07-11T16:03:47.374Z,15.02
2018-07-11T16:06:36.218Z,14.88
2018-07-11T16:09:25.363Z,14.85
2018-07-11T16:12:14.204Z,15.02
2018-07-11T16:15:03.382Z,15.05
2018-07-11T16:17:52.392Z,15.29
2018-07-11T16:20:41.371Z,15.08
2018-07-11T16:23:30.464Z,15.18
2018-07-11T16:26:19.418Z,15.20
2018-07-11T16:29:08.257Z,15.27
2018-07-11T16:31:57.336Z,15.31
2018-07-11T16:34:46.539Z,15.48
2018-07-11T16:37:36.108Z,15.62
2018-07-11T16:40:24.732Z,15.58
2018-07-11T16:43:14.143Z,16.00
2018-07-11T16:46:02.630Z,16.02
2018-07-11T16:48:52.822Z,16.06
2018-07-11T16:51:41.207Z,15.93
2018-07-11T16:54:30.311Z,15.88
2018-07-11T16:57:18.809Z,16.05
2018-07-11T17:00:09.004Z,15.75
2018-07-11T17:02:57.631Z,15.56
2018-07-11T17:05:47.064Z,15.73
2018-07-11T17:08:36.764Z,15.49
2018-07-11T17:11:25.054Z,15.45
2018-07-11T17:14:13.395Z,15.26
2018-07-11T17:17:02.425Z,15.55
2018-07-11T17:19:51.000Z,15.50
2018-07-11T17:22:39.955Z,15.52
2018-07-11T17:25:28.600Z,15.55
2018-07-11T17:28:17.473Z,15.64
2018-07-11T17:31:06.246Z,15.63
2018-07-11T17:33:55.923Z,15.77
2018-07-11T17:36:44.265Z,15.67
2018-07-11T17:39:33.111Z,15.53
2018-07-11T17:42:25.796Z,15.37
2018-07-11T17:45:19.065Z,15.48
2018-07-11T17:48:08.269Z,15.56
2018-07-11T17:50:57.412Z,15.57
2018-07-11T17:53:46.152Z,15.45
2018-07-11T17:56:34.891Z,15.72
2018-07-11T17:59:23.884Z,15.78
2018-07-11T18:02:12.134Z,15.51
2018-07-11T18:05:01.010Z,15.58
2018-07-11T18:07:51.412Z,15.31
2018-07-11T18:10:42.149Z,15.10
2018-07-11T18:13:35.084Z,15.19
2018-07-11T18:16:24.824Z,15.03
2018-07-11T18:19:14.272Z,14.97
2018-07-11T18:22:03.308Z,15.02
2018-07-11T18:24:51.899Z,14.97
2018-07-11T18:27:41.351Z,15.03
2018-07-11T18:30:30.620Z,15.03
2018-07-11T18:33:19.914Z,15.02
2018-07-11T18:36:09.271Z,15.01
2018-07-11T18:38:58.576Z,14.99
2018-07-11T18:41:48.091Z,14.91
2018-07-11T18:44:36.779Z,14.94
2018-07-11T18:47:25.614Z,14.88
2018-07-11T18:50:14.882Z,14.92
2018-07-11T18:53:03.816Z,14.89
2018-07-11T18:55:52.878Z,14.99
2018-07-11T18:58:41.926Z,15.00
2018-07-11T19:01:30.764Z,14.92
2018-07-11T19:04:21.525Z,14.90
2018-07-11T19:07:14.808Z,14.85
2018-07-11T19:10:05.526Z,14.76
2018-07-11T19:12:53.956Z,14.80
2018-07-11T19:15:42.574Z,14.76
2018-07-11T19:18:31.505Z,14.75
2018-07-11T19:21:19.511Z,14.79
2018-07-11T19:24:09.658Z,14.74
2018-07-11T19:26:58.780Z,14.83
2018-07-11T19:29:47.430Z,14.70
2018-07-11T19:32:36.601Z,14.71
2018-07-11T19:35:25.288Z,14.64
2018-07-11T19:38:14.366Z,14.74
2018-07-11T19:41:05.082Z,14.84
2018-07-11T19:43:55.360Z,14.86
2018-07-11T19:46:45.062Z,14.67
2018-07-11T19:49:34.104Z,14.80
2018-07-11T19:52:22.604Z,14.78
2018-07-11T19:55:11.690Z,14.71
2018-07-11T19:58:00.554Z,14.75
2018-07-11T20:00:49.149Z,14.74
2018-07-11T20:03:37.122Z,14.70
2018-07-11T20:06:25.648Z,14.61
2018-07-11T20:09:14.140Z,14.71
2018-07-11T20:12:02.472Z,14.77
2018-07-11T20:14:51.352Z,14.66
2018-07-11T20:17:40.173Z,14.72
2018-07-11T20:20:28.915Z,14.78
2018-07-11T20:23:17.952Z,14.65
2018-07-11T20:26:06.966Z,14.62
2018-07-11T20:28:54.991Z,14.84
2018-07-11T20:31:44.192Z,14.70
2018-07-11T20:34:33.363Z,14.41
2018-07-11T20:37:22.277Z,14.54
2018-07-11T20:40:11.323Z,14.60
2018-07-11T20:43:00.568Z,14.60
2018-07-11T20:45:48.987Z,14.77
2018-07-11T20:48:39.375Z,14.47
2018-07-11T20:51:27.913Z,14.42
2018-07-11T20:54:17.358Z,14.28
2018-07-11T20:57:05.609Z,14.33
2018-07-11T20:59:54.597Z,14.36
2018-07-11T21:02:43.495Z,14.64
2018-07-11T21:05:32.517Z,14.35
2018-07-11T21:08:21.594Z,14.32
2018-07-11T21:11:10.424Z,14.43
2018-07-11T21:13:58.691Z,14.35
2018-07-11T21:16:47.987Z,14.33
2018-07-11T21:19:35.824Z,14.30
2018-07-11T21:22:25.293Z,14.21
2018-07-11T21:25:13.232Z,14.21
2018-07-11T21:28:02.438Z,14.08
2018-07-11T21:30:50.287Z,14.19
2018-07-11T21:33:38.942Z,14.26
2018-07-11T21:36:29.194Z,14.24
2018-07-11T21:39:18.160Z,14.22
2018-07-11T21:42:07.749Z,14.16
2018-07-11T21:44:56.661Z,14.15
2018-07-11T21:47:46.236Z,14.16
2018-07-11T21:50:35.715Z,14.13
2018-07-11T21:53:24.237Z,14.12
2018-07-11T21:56:12.943Z,14.09
2018-07-11T21:59:01.644Z,14.14
2018-07-11T22:01:50.391Z,14.10
2018-07-11T22:04:39.308Z,14.09
2018-07-11T22:07:28.320Z,14.06
2018-07-11T22:10:17.394Z,14.09
2018-07-11T22:13:06.751Z,13.99
2018-07-11T22:15:55.474Z,14.06
2018-07-11T22:18:45.615Z,14.05
2018-07-11T22:21:35.220Z,14.05
2018-07-11T22:24:23.935Z,14.10
2018-07-11T22:27:12.572Z,14.07
2018-07-11T22:30:01.475Z,14.09
2018-07-11T22:32:49.976Z,14.06
2018-07-11T22:35:38.372Z,14.07
2018-07-11T22:38:27.159Z,14.05
2018-07-11T22:41:15.676Z,13.98
2018-07-11T22:44:04.747Z,14.01
2018-07-11T22:46:53.630Z,14.06
2018-07-11T22:49:46.719Z,14.02
2018-07-11T22:52:35.336Z,13.97
2018-07-11T22:55:24.082Z,13.95
2018-07-11T22:58:12.886Z,14.08
2018-07-11T23:01:01.711Z,14.10
2018-07-11T23:03:50.500Z,14.08
2018-07-11T23:06:40.491Z,14.07
2018-07-11T23:09:29.887Z,14.12
2018-07-11T23:12:18.472Z,14.14
2018-07-11T23:15:07.384Z,14.13
2018-07-11T23:17:56.282Z,14.13
2018-07-11T23:20:45.060Z,14.07
2018-07-11T23:23:33.857Z,14.06
2018-07-11T23:26:22.368Z,14.10
2018-07-11T23:29:11.212Z,14.13
2018-07-11T23:32:00.168Z,14.11
2018-07-11T23:34:48.809Z,14.03
2018-07-11T23:37:37.668Z,13.97
2018-07-11T23:40:26.961Z,14.02
2018-07-11T23:43:16.956Z,14.06
2018-07-11T23:46:05.392Z,14.00
2018-07-11T23:48:54.938Z,14.03
2018-07-11T23:51:43.703Z,13.94
2018-07-11T23:54:32.938Z,14.03
2018-07-11T23:57:21.441Z,14.03
